Pagina principală
METAR-TAF:

METAR-TAF

Aeroporturi :

NWS Office

Majuro, Insulele Marshall

Latitudine: 07-05N, longitudine: 171-12E, elevație: 4 m

Observații meteo curente

Raportul a fost făcut în urmă cu 55 de minute, la 14:51 UTC
Vânt 5 kt de la Est
Temperatură 27°C
Umiditate 84%
Presiune 1009 hPa
Vizibilitate: 24.1 km
Nori puțini la o înălțime de 1500 picior
Nori împrăștiați la o înălțime de 5000 picior
Nori fragmentați la o înălțime de 12000 picior
Total acoperit la o înălțime de 30000 picior

METAR: PKMR 251451Z 08005KT 15SM FEW015 SCT050 BKN120 OVC300 27/24 A2979 RMK SLP090 60009 8/878 T02670237 57015

Ora: 03:46 (15:46 UTC)


TAF: lipsă

Observații și prognoze meteo pentru peste 4.000 de aeroporturi (rapoarte METAR și TAF).

Stațiile disponibile sunt reprezentate pe hartă prin puncte galbene și roșii.

Țineți indicatorul mouse-ului pe punctul dorit pentru a vedea denumirea stației.

Apoi, faceți clic pentru a vedea observațiile și prognozele meteorologice.

Pentru a schimba harta: Pentru mărire, faceți clic pe butoanele verzi cu cruce neagră; pentru micșorare, pe butonul verde cu o liniuță; pentru hărți învecinate, pe săgețile verzi.


METAR-TAF: